Time;durP1;ratioP1;P1;durP2;ratioP2;P2;SDS_P1;SDS_P2;PMS_P1;PMS_P2;Temp;Humidity;BMP_temperature;BMP_pressure;BME280_temperature;BME280_humidity;BME280_pressure;Samples;Min_cycle;Max_cycle;Signal;HPM_P1;HPM_P2
2023/03/25 00:01:07;;;;;;;11.55;3.03;;;12.10;60.30;;;;;;5014406;28;20026;-77
2023/03/25 00:03:41;;;;;;;10.57;3.30;;;12.10;60.20;;;;;;5007810;28;20037;-79
2023/03/25 00:06:09;;;;;;;14.15;3.83;;;12.10;60.20;;;;;;4988922;28;20030;-78
2023/03/25 00:08:35;;;;;;;12.60;2.97;;;12.10;60.20;;;;;;5004543;28;20056;-78
2023/03/25 00:11:07;;;;;;;11.90;2.65;;;12.10;60.20;;;;;;5022330;28;20065;-78
2023/03/25 00:13:34;;;;;;;12.35;3.55;;;12.10;60.20;;;;;;5016604;28;20045;-78
2023/03/25 00:16:02;;;;;;;9.98;2.65;;;12.10;60.20;;;;;;5022350;28;20091;-78
2023/03/25 00:18:32;;;;;;;11.20;2.53;;;12.10;60.20;;;;;;5022570;28;20079;-77
2023/03/25 00:21:01;;;;;;;13.10;4.07;;;12.10;60.20;;;;;;5019855;28;20037;-79
2023/03/25 00:23:28;;;;;;;11.05;2.88;;;12.10;60.20;;;;;;5004885;28;20109;-79
2023/03/25 00:25:58;;;;;;;10.10;2.17;;;12.10;60.10;;;;;;5004887;28;20071;-78
2023/03/25 00:28:29;;;;;;;10.45;2.47;;;12.10;60.10;;;;;;4996346;28;20242;-77
2023/03/25 00:30:59;;;;;;;7.55;2.45;;;12.10;60.10;;;;;;5022840;28;20041;-79
2023/03/25 00:33:25;;;;;;;11.48;4.18;;;12.20;60.30;;;;;;5023232;28;20041;-79
2023/03/25 00:35:58;;;;;;;10.15;3.38;;;12.20;60.30;;;;;;5005465;28;20036;-78
2023/03/25 00:38:32;;;;;;;10.23;2.72;;;12.10;60.10;;;;;;5007496;28;20029;-80
2023/03/25 00:41:09;;;;;;;11.88;3.45;;;12.20;60.30;;;;;;5008472;28;20060;-78
2023/03/25 00:43:35;;;;;;;14.27;3.58;;;12.10;60.10;;;;;;5022731;28;20120;-80
2023/03/25 00:46:01;;;;;;;11.93;3.35;;;12.10;60.10;;;;;;5001033;28;20155;-79
2023/03/25 00:48:27;;;;;;;15.20;3.13;;;12.20;60.40;;;;;;5022663;28;20749;-77
2023/03/25 00:50:53;;;;;;;13.10;2.78;;;12.10;60.20;;;;;;5002686;28;20365;-79
2023/03/25 00:53:19;;;;;;;7.30;2.55;;;12.10;60.30;;;;;;5020536;28;20103;-81
2023/03/25 00:55:44;;;;;;;12.05;3.10;;;12.10;60.30;;;;;;5000045;28;20037;-80
2023/03/25 00:58:10;;;;;;;19.25;3.45;;;12.10;60.40;;;;;;5022157;28;20029;-79
2023/03/25 01:00:37;;;;;;;11.68;3.97;;;12.10;60.50;;;;;;5000982;28;20084;-79
2023/03/25 01:03:03;;;;;;;14.00;2.80;;;12.10;60.50;;;;;;5014127;28;20221;-80
2023/03/25 01:05:29;;;;;;;11.57;2.65;;;12.10;60.50;;;;;;5018129;28;20116;-80
2023/03/25 01:07:55;;;;;;;11.05;2.67;;;12.10;60.50;;;;;;4984984;28;20045;-77
2023/03/25 01:10:22;;;;;;;14.50;3.33;;;12.10;60.60;;;;;;5015063;28;20091;-77
2023/03/25 01:12:48;;;;;;;16.00;3.55;;;12.10;60.60;;;;;;5002035;28;20037;-77
2023/03/25 01:15:14;;;;;;;16.15;3.75;;;12.10;60.70;;;;;;5022010;28;20033;-79
2023/03/25 01:17:40;;;;;;;18.13;3.80;;;12.10;60.70;;;;;;5003185;28;20045;-77
2023/03/25 01:20:09;;;;;;;15.15;3.42;;;12.10;60.80;;;;;;5004179;28;20039;-77
2023/03/25 01:22:35;;;;;;;12.85;3.72;;;12.10;60.80;;;;;;5018008;28;20033;-78
2023/03/25 01:25:03;;;;;;;9.63;4.07;;;12.10;60.80;;;;;;5009137;28;20572;-78
2023/03/25 01:27:29;;;;;;;12.60;3.17;;;12.00;60.70;;;;;;5020960;28;20033;-78
2023/03/25 01:29:56;;;;;;;19.33;2.97;;;12.00;60.70;;;;;;5002782;28;20485;-79
2023/03/25 01:32:22;;;;;;;16.33;3.53;;;12.00;60.80;;;;;;5012101;28;20123;-78
2023/03/25 01:34:48;;;;;;;19.83;4.90;;;12.00;60.80;;;;;;5025668;28;20497;-77
2023/03/25 01:37:14;;;;;;;17.75;3.40;;;12.00;60.90;;;;;;5017304;28;20029;-79
2023/03/25 01:39:40;;;;;;;18.25;3.70;;;12.00;60.90;;;;;;5003991;28;20159;-79
2023/03/25 01:42:06;;;;;;;16.65;3.88;;;11.90;60.80;;;;;;5004074;28;20369;-79
2023/03/25 01:44:33;;;;;;;16.92;4.18;;;11.90;60.80;;;;;;4998236;28;20508;-78
2023/03/25 01:47:03;;;;;;;13.65;3.15;;;11.90;60.90;;;;;;5002806;28;20049;-79
2023/03/25 01:49:39;;;;;;;15.80;5.00;;;11.90;61.00;;;;;;5021639;28;20036;-80
2023/03/25 01:52:11;;;;;;;17.73;4.25;;;11.90;61.00;;;;;;5003379;28;20407;-79
2023/03/25 01:54:39;;;;;;;15.93;3.78;;;11.90;61.00;;;;;;5004725;28;20029;-79
2023/03/25 01:57:07;;;;;;;12.95;3.22;;;11.90;61.10;;;;;;5003826;28;20049;-80
2023/03/25 01:59:33;;;;;;;11.77;3.38;;;11.90;61.10;;;;;;5004199;28;20033;-80
2023/03/25 02:02:05;;;;;;;15.25;5.18;;;11.90;61.10;;;;;;5023667;28;20434;-78
2023/03/25 02:04:49;;;;;;;15.95;4.13;;;11.90;61.20;;;;;;5018377;28;20041;-80
2023/03/25 02:07:17;;;;;;;12.05;3.55;;;11.90;61.20;;;;;;5021935;28;20029;-79
2023/03/25 02:09:43;;;;;;;16.13;4.85;;;11.90;61.20;;;;;;5004120;28;20030;-77
2023/03/25 02:12:09;;;;;;;17.65;3.95;;;11.90;61.20;;;;;;5020363;28;20056;-78
2023/03/25 02:14:37;;;;;;;25.85;4.45;;;11.90;61.20;;;;;;5001572;28;20060;-79
2023/03/25 02:17:34;;;;;;;14.80;4.82;;;11.90;61.20;;;;;;5009059;28;20425;-78
2023/03/25 02:20:22;;;;;;;18.00;4.40;;;11.90;61.40;;;;;;5011832;28;20025;-78
2023/03/25 02:23:00;;;;;;;19.58;4.20;;;11.90;61.30;;;;;;5020005;28;20369;-78
2023/03/25 02:25:35;;;;;;;19.40;5.15;;;11.90;61.40;;;;;;5022267;28;20045;-78
2023/03/25 02:28:24;;;;;;;18.08;4.70;;;11.90;61.40;;;;;;5021343;28;20749;-78
2023/03/25 02:31:04;;;;;;;15.18;3.80;;;11.90;61.50;;;;;;4989170;28;20119;-78
2023/03/25 02:33:45;;;;;;;23.08;4.40;;;11.80;61.40;;;;;;5008221;28;20064;-79
2023/03/25 02:36:23;;;;;;;20.92;5.07;;;11.90;61.60;;;;;;5003360;28;20030;-78
2023/03/25 02:39:01;;;;;;;19.67;4.32;;;11.80;61.50;;;;;;5000516;28;20102;-78
2023/03/25 02:41:47;;;;;;;17.02;3.63;;;11.80;61.80;;;;;;5023187;28;20037;-78
2023/03/25 02:44:19;;;;;;;13.95;3.63;;;11.80;61.60;;;;;;4988186;28;20025;-77
2023/03/25 02:46:50;;;;;;;18.38;5.53;;;11.80;61.60;;;;;;5023554;28;20274;-78
2023/03/25 02:49:26;;;;;;;15.45;4.45;;;11.80;61.70;;;;;;5009834;28;20061;-79
2023/03/25 02:52:07;;;;;;;21.38;4.35;;;11.70;61.60;;;;;;5011247;28;20029;-78
2023/03/25 02:54:35;;;;;;;17.08;4.78;;;11.80;61.80;;;;;;5027435;28;20512;-80
2023/03/25 02:57:04;;;;;;;16.40;4.15;;;11.80;61.80;;;;;;5010798;28;20528;-82
2023/03/25 02:59:32;;;;;;;15.20;3.85;;;11.80;61.80;;;;;;5027571;28;20128;-78
2023/03/25 03:02:03;;;;;;;15.38;3.75;;;11.80;61.80;;;;;;5008903;28;20026;-79
2023/03/25 03:04:29;;;;;;;18.25;4.38;;;11.70;61.70;;;;;;5009405;28;20048;-80
2023/03/25 03:06:56;;;;;;;18.80;4.63;;;11.80;61.90;;;;;;5026655;28;20021;-79
2023/03/25 03:09:26;;;;;;;20.58;5.03;;;11.70;61.80;;;;;;5009940;28;20057;-79
2023/03/25 03:12:29;;;;;;;19.27;4.72;;;11.70;61.80;;;;;;5025639;28;20524;-79
2023/03/25 03:15:11;;;;;;;20.88;5.15;;;11.70;61.90;;;;;;5004389;28;20272;-80
2023/03/25 03:17:48;;;;;;;18.92;4.97;;;11.70;61.90;;;;;;5025708;28;20293;-78
2023/03/25 03:20:24;;;;;;;17.98;4.40;;;11.70;61.90;;;;;;5007519;28;20040;-77
2023/03/25 03:23:10;;;;;;;21.73;4.72;;;11.70;62.00;;;;;;5019420;28;20473;-78
2023/03/25 03:25:46;;;;;;;15.40;3.88;;;11.70;62.10;;;;;;5008223;28;20040;-78
2023/03/25 03:28:39;;;;;;;19.42;5.32;;;11.70;62.10;;;;;;5035145;28;20091;-79
2023/03/25 03:31:14;;;;;;;16.80;4.95;;;11.60;62.00;;;;;;5005286;28;20033;-78
2023/03/25 03:33:56;;;;;;;18.85;4.30;;;11.70;62.10;;;;;;4987582;28;20138;-78
2023/03/25 03:36:29;;;;;;;20.15;5.65;;;11.60;62.00;;;;;;5018922;28;20219;-79
2023/03/25 03:39:06;;;;;;;21.25;4.22;;;11.70;62.20;;;;;;5024938;28;20029;-79
2023/03/25 03:41:34;;;;;;;16.17;5.50;;;11.60;62.10;;;;;;5036155;28;20485;-79
2023/03/25 03:44:06;;;;;;;22.92;5.68;;;11.70;62.30;;;;;;5007362;28;20033;-79
2023/03/25 03:46:46;;;;;;;22.75;4.95;;;11.60;62.20;;;;;;5026353;28;20053;-79
2023/03/25 03:49:17;;;;;;;20.98;4.47;;;11.60;62.20;;;;;;5020765;28;20473;-78
2023/03/25 03:52:07;;;;;;;15.63;3.97;;;11.60;62.20;;;;;;5005683;28;20527;-77
2023/03/25 03:54:42;;;;;;;18.75;4.22;;;11.60;62.20;;;;;;5005981;28;20543;-78
2023/03/25 03:57:36;;;;;;;18.63;5.28;;;11.60;62.20;;;;;;5025415;28;20033;-77
2023/03/25 04:00:05;;;;;;;;;;;11.60;62.20;;;;;;5009197;28;20488;-77
2023/03/25 04:02:41;;;;;;;12.50;4.53;;;11.60;62.20;;;;;;5047516;28;19992;-77
2023/03/25 04:05:10;;;;;;;16.52;4.72;;;11.50;61.90;;;;;;5028982;28;20241;-78
2023/03/25 04:07:44;;;;;;;12.50;4.47;;;11.50;62.00;;;;;;5045457;28;20064;-77
2023/03/25 04:10:16;;;;;;;21.50;5.43;;;11.50;62.10;;;;;;5029824;28;20154;-78
2023/03/25 04:12:51;;;;;;;23.05;6.45;;;11.50;62.10;;;;;;5044565;28;20041;-77
2023/03/25 04:15:17;;;;;;;19.52;4.00;;;11.50;62.10;;;;;;5045524;28;20121;-78
2023/03/25 04:17:44;;;;;;;20.40;4.72;;;11.50;62.20;;;;;;5050979;28;20049;-78
2023/03/25 04:20:14;;;;;;;17.02;4.38;;;11.50;62.20;;;;;;5034914;28;20113;-78
2023/03/25 04:22:44;;;;;;;20.13;5.25;;;11.50;62.30;;;;;;5026300;28;20045;-78
2023/03/25 04:25:12;;;;;;;17.15;4.15;;;11.40;62.20;;;;;;5025533;28;20248;-78
2023/03/25 04:27:39;;;;;;;22.05;4.82;;;11.40;62.20;;;;;;5020128;28;20481;-78
2023/03/25 04:30:07;;;;;;;18.67;6.88;;;11.40;62.20;;;;;;5023366;28;20018;-79
2023/03/25 04:32:33;;;;;;;15.93;3.83;;;11.40;62.30;;;;;;5024746;28;20034;-78
2023/03/25 04:35:00;;;;;;;16.95;3.83;;;11.40;62.30;;;;;;5004008;28;20095;-78
2023/03/25 04:37:27;;;;;;;16.58;4.22;;;11.40;62.40;;;;;;5016284;28;20056;-79
2023/03/25 04:39:54;;;;;;;13.32;4.03;;;11.40;62.40;;;;;;5007249;28;20025;-77
2023/03/25 04:42:31;;;;;;;14.00;4.43;;;11.40;62.50;;;;;;5006269;28;20400;-79
2023/03/25 04:45:00;;;;;;;16.10;3.45;;;11.40;62.50;;;;;;5006534;28;20080;-78
2023/03/25 04:47:29;;;;;;;17.38;4.63;;;11.30;62.40;;;;;;5024437;28;20096;-78
2023/03/25 04:49:55;;;;;;;18.70;5.43;;;11.40;62.50;;;;;;5006942;28;20037;-79
2023/03/25 04:52:21;;;;;;;15.77;4.05;;;11.40;62.50;;;;;;5022615;28;20045;-80
2023/03/25 04:54:47;;;;;;;20.38;4.75;;;11.40;62.50;;;;;;5024043;28;20468;-78
2023/03/25 04:57:14;;;;;;;17.08;3.55;;;11.30;62.40;;;;;;5024436;28;20025;-80
2023/03/25 04:59:40;;;;;;;16.58;3.72;;;11.40;62.60;;;;;;5023405;28;20223;-79
2023/03/25 05:02:11;;;;;;;19.98;5.00;;;11.40;62.60;;;;;;5024778;28;20101;-79
2023/03/25 05:04:46;;;;;;;13.43;3.70;;;11.30;62.40;;;;;;5022227;28;20485;-78
2023/03/25 05:07:15;;;;;;;14.18;3.63;;;11.30;62.50;;;;;;5024970;28;20038;-79
2023/03/25 05:09:41;;;;;;;14.05;3.95;;;11.40;62.70;;;;;;5006082;28;20030;-79
2023/03/25 05:12:10;;;;;;;17.65;3.70;;;11.30;62.50;;;;;;5014030;28;20042;-78
2023/03/25 05:14:36;;;;;;;14.93;3.67;;;11.30;62.50;;;;;;5024266;28;20022;-80
2023/03/25 05:17:02;;;;;;;15.02;3.45;;;11.30;62.60;;;;;;5022549;28;20122;-79
2023/03/25 05:19:28;;;;;;;11.23;3.97;;;11.30;62.60;;;;;;5013216;28;20052;-79
2023/03/25 05:21:55;;;;;;;15.20;3.58;;;11.30;62.70;;;;;;5004949;28;20033;-80
2023/03/25 05:24:21;;;;;;;18.50;3.83;;;11.30;62.60;;;;;;5019849;28;20094;-79
2023/03/25 05:26:46;;;;;;;15.75;3.08;;;11.30;62.70;;;;;;5023472;28;20128;-76
2023/03/25 05:29:14;;;;;;;15.30;3.63;;;11.30;62.70;;;;;;5020475;28;20355;-78
2023/03/25 05:31:43;;;;;;;16.85;4.35;;;11.40;62.90;;;;;;5011420;28;20052;-79
2023/03/25 05:34:09;;;;;;;10.48;3.17;;;11.30;62.80;;;;;;5027825;28;20543;-79
2023/03/25 05:36:35;;;;;;;17.02;4.43;;;11.30;62.80;;;;;;5027859;28;20086;-78
2023/03/25 05:39:03;;;;;;;18.70;4.45;;;11.40;63.00;;;;;;5020330;28;20033;-79
2023/03/25 05:41:32;;;;;;;16.73;5.68;;;11.40;63.00;;;;;;5027607;28;20032;-77
2023/03/25 05:43:59;;;;;;;13.48;3.80;;;11.40;63.00;;;;;;5024105;28;20494;-79
2023/03/25 05:46:28;;;;;;;15.65;4.15;;;11.40;63.00;;;;;;5022488;28;20469;-77
2023/03/25 05:48:56;;;;;;;11.23;3.75;;;11.40;63.00;;;;;;5020467;28;20033;-77
2023/03/25 05:51:24;;;;;;;16.50;4.18;;;11.40;63.10;;;;;;5020895;28;20044;-78
2023/03/25 05:53:53;;;;;;;14.13;3.22;;;11.40;63.10;;;;;;5012481;28;20045;-77
2023/03/25 05:56:21;;;;;;;13.00;3.53;;;11.40;63.10;;;;;;5005379;28;20385;-78
2023/03/25 05:58:49;;;;;;;18.02;4.05;;;11.40;63.20;;;;;;5012072;28;20178;-78
2023/03/25 06:01:17;;;;;;;15.98;4.75;;;11.40;63.20;;;;;;5026870;28;20030;-78
2023/03/25 06:03:44;;;;;;;12.30;3.45;;;11.40;63.20;;;;;;5010857;28;20037;-79
2023/03/25 06:06:17;;;;;;;16.58;3.35;;;11.40;63.30;;;;;;5009422;28;20648;-80
2023/03/25 06:08:50;;;;;;;16.73;3.47;;;11.40;63.30;;;;;;5010609;28;20120;-78
2023/03/25 06:11:17;;;;;;;17.17;4.55;;;11.40;63.30;;;;;;5029207;28;20037;-77
2023/03/25 06:13:51;;;;;;;12.63;5.13;;;11.40;63.30;;;;;;5025411;28;20048;-79
2023/03/25 06:16:19;;;;;;;17.27;4.93;;;11.40;63.40;;;;;;5031289;28;20170;-79
2023/03/25 06:18:49;;;;;;;13.25;3.45;;;11.40;63.40;;;;;;4991269;28;20449;-79
2023/03/25 06:21:19;;;;;;;18.02;4.57;;;11.40;63.50;;;;;;5022223;28;20021;-79
2023/03/25 06:23:48;;;;;;;19.05;5.50;;;11.40;63.50;;;;;;5012024;28;20272;-81
2023/03/25 06:26:16;;;;;;;14.07;3.47;;;11.40;63.50;;;;;;5008531;28;20075;-79
2023/03/25 06:28:42;;;;;;;13.95;4.65;;;11.40;63.50;;;;;;4995058;28;20034;-78
2023/03/25 06:31:17;;;;;;;14.48;3.50;;;11.40;63.50;;;;;;5008615;28;20087;-80
2023/03/25 06:33:44;;;;;;;18.15;4.75;;;11.40;63.60;;;;;;5022332;28;20033;-78
2023/03/25 06:36:12;;;;;;;23.15;4.50;;;11.40;63.60;;;;;;5025723;28;20032;-78
2023/03/25 06:38:38;;;;;;;22.75;5.88;;;11.50;63.80;;;;;;5026029;28;20029;-79
2023/03/25 06:41:09;;;;;;;16.30;4.32;;;11.50;63.80;;;;;;5004317;28;20514;-78
2023/03/25 06:43:36;;;;;;;13.80;3.75;;;11.50;63.80;;;;;;5020141;28;20451;-79
2023/03/25 06:46:25;;;;;;;18.45;4.70;;;11.50;64.10;;;;;;4983798;28;20431;-77
2023/03/25 06:49:15;;;;;;;18.42;4.20;;;11.50;63.70;;;;;;5018668;28;20041;-78
2023/03/25 06:51:41;;;;;;;19.40;4.13;;;11.60;63.90;;;;;;5002823;28;20501;-79
2023/03/25 06:54:07;;;;;;;24.00;6.10;;;11.60;63.90;;;;;;5005907;28;20048;-79
2023/03/25 06:56:34;;;;;;;15.13;4.07;;;11.60;63.90;;;;;;5019516;28;20037;-80
2023/03/25 06:59:00;;;;;;;20.20;4.13;;;11.60;63.90;;;;;;5010603;28;20032;-83
2023/03/25 07:01:28;;;;;;;15.65;3.67;;;11.70;64.00;;;;;;5008927;28;20497;-81
2023/03/25 07:03:54;;;;;;;16.17;4.97;;;11.70;64.00;;;;;;5028740;28;20167;-81
2023/03/25 07:06:23;;;;;;;25.38;6.07;;;11.70;63.90;;;;;;5024928;28;20044;-82
2023/03/25 07:08:52;;;;;;;;;;;11.80;64.10;;;;;;5007572;28;20495;-83
2023/03/25 07:11:28;;;;;;;14.80;4.80;;;11.80;64.00;;;;;;5035764;28;19920;-83
2023/03/25 07:13:54;;;;;;;18.92;4.68;;;11.80;63.80;;;;;;5026519;28;20091;-81
2023/03/25 07:16:21;;;;;;;15.15;3.47;;;11.90;63.90;;;;;;5013205;28;20036;-81
2023/03/25 07:18:50;;;;;;;20.42;4.80;;;11.90;63.80;;;;;;5009856;28;20031;-80
2023/03/25 07:21:16;;;;;;;18.33;4.40;;;11.90;63.80;;;;;;5024238;28;20025;-81
2023/03/25 07:23:42;;;;;;;18.55;6.10;;;12.00;64.00;;;;;;5029483;28;20053;-81
2023/03/25 07:26:09;;;;;;;14.73;3.70;;;12.00;63.90;;;;;;5007952;28;20022;-80
2023/03/25 07:28:36;;;;;;;17.27;4.18;;;12.10;64.00;;;;;;5001898;28;20045;-83
2023/03/25 07:31:12;;;;;;;21.40;4.30;;;12.10;64.20;;;;;;5026371;28;20029;-84
2023/03/25 07:33:38;;;;;;;15.85;4.10;;;12.30;65.40;;;;;;4986823;28;20041;-83
2023/03/25 07:36:06;;;;;;;21.48;3.72;;;12.40;65.70;;;;;;5026556;28;20303;-85
2023/03/25 07:38:35;;;;;;;17.88;3.70;;;12.50;66.10;;;;;;5029215;28;20040;-86
2023/03/25 07:41:10;;;;;;;23.65;4.47;;;12.70;66.70;;;;;;5010292;28;20084;-82
2023/03/25 07:43:44;;;;;;;22.30;4.97;;;12.80;66.90;;;;;;5009071;28;20096;-81
2023/03/25 07:46:40;;;;;;;15.60;3.58;;;13.00;66.90;;;;;;5021804;28;20087;-83
2023/03/25 07:49:09;;;;;;;13.60;3.47;;;13.00;66.70;;;;;;5008203;28;20060;-81
2023/03/25 07:51:35;;;;;;;16.77;4.00;;;13.10;66.80;;;;;;4994066;28;20041;-83
2023/03/25 07:54:01;;;;;;;24.73;4.70;;;13.10;66.60;;;;;;5007992;28;20041;-82
2023/03/25 07:56:27;;;;;;;19.95;4.15;;;13.20;66.70;;;;;;5021017;28;20026;-82
2023/03/25 07:58:53;;;;;;;19.38;4.57;;;13.30;66.70;;;;;;5008135;28;20110;-82
2023/03/25 08:01:19;;;;;;;18.63;4.55;;;13.40;66.60;;;;;;5023657;28;20031;-80
2023/03/25 08:03:45;;;;;;;55.08;5.95;;;13.50;66.50;;;;;;5010864;28;20116;-81
2023/03/25 08:06:11;;;;;;;19.25;4.70;;;13.60;66.50;;;;;;5028267;28;20288;-84
2023/03/25 08:08:37;;;;;;;15.80;3.67;;;13.70;66.50;;;;;;5028344;28;20037;-85
2023/03/25 08:11:04;;;;;;;17.50;4.45;;;13.80;66.30;;;;;;4994704;28;20489;-84
2023/03/25 08:13:30;;;;;;;14.57;3.58;;;13.90;66.20;;;;;;5007137;28;20044;-81
2023/03/25 08:15:56;;;;;;;12.23;3.65;;;14.00;66.10;;;;;;4999499;28;20026;-82
2023/03/25 08:18:24;;;;;;;18.90;3.25;;;14.10;65.90;;;;;;5041565;28;20044;-88
2023/03/25 08:20:50;;;;;;;16.45;3.67;;;14.20;66.00;;;;;;5030585;28;20370;-85
2023/03/25 08:23:17;;;;;;;15.63;4.20;;;14.40;67.00;;;;;;5029287;28;20066;-81
2023/03/25 08:25:43;;;;;;;14.10;4.53;;;14.70;67.70;;;;;;5028308;28;20033;-82
2023/03/25 08:28:09;;;;;;;16.42;5.55;;;15.00;68.40;;;;;;5012186;28;20029;-82
2023/03/25 08:30:39;;;;;;;11.02;3.05;;;15.30;67.80;;;;;;5014344;28;20040;-85
2023/03/25 08:33:06;;;;;;;11.65;2.70;;;15.40;67.50;;;;;;5029513;28;20041;-83
2023/03/25 08:35:33;;;;;;;13.57;3.40;;;15.60;67.40;;;;;;5009280;28;20100;-79
2023/03/25 08:38:00;;;;;;;15.65;5.10;;;15.80;67.40;;;;;;5027960;28;20052;-81
2023/03/25 08:40:26;;;;;;;16.83;4.80;;;15.80;67.00;;;;;;5024196;28;20029;-81
2023/03/25 08:42:53;;;;;;;16.02;3.47;;;15.90;66.80;;;;;;5021533;28;20642;-82
2023/03/25 08:45:19;;;;;;;9.55;2.72;;;16.00;66.60;;;;;;5019267;28;20425;-79
2023/03/25 08:47:45;;;;;;;15.20;3.58;;;16.10;66.60;;;;;;5029470;28;20524;-81
2023/03/25 08:50:12;;;;;;;17.05;3.67;;;16.10;66.30;;;;;;5011749;28;20239;-82
2023/03/25 08:52:41;;;;;;;16.95;3.42;;;16.10;65.90;;;;;;4994160;28;20072;-80
2023/03/25 08:55:09;;;;;;;10.35;2.78;;;16.20;65.90;;;;;;5026683;28;20069;-82
2023/03/25 08:57:36;;;;;;;15.50;3.97;;;16.20;65.60;;;;;;5028220;28;20951;-82
2023/03/25 09:00:13;;;;;;;13.30;3.50;;;16.30;65.60;;;;;;5022113;28;20603;-82
2023/03/25 09:02:40;;;;;;;12.15;3.97;;;16.30;65.30;;;;;;5032188;28;20091;-80
2023/03/25 09:05:09;;;;;;;14.15;3.85;;;16.40;65.20;;;;;;5004014;28;20037;-80
2023/03/25 09:07:36;;;;;;;12.98;3.35;;;16.40;65.00;;;;;;4987961;28;20509;-83
2023/03/25 09:10:03;;;;;;;11.52;3.55;;;16.40;64.80;;;;;;5021281;28;20029;-80
2023/03/25 09:12:30;;;;;;;10.23;2.88;;;16.40;64.70;;;;;;5021044;28;20041;-80
2023/03/25 09:14:56;;;;;;;11.05;3.03;;;16.40;64.50;;;;;;5004355;28;20044;-80
2023/03/25 09:17:22;;;;;;;12.48;3.13;;;16.50;64.40;;;;;;5017180;28;20025;-83
2023/03/25 09:19:48;;;;;;;11.57;3.80;;;16.50;64.30;;;;;;5030312;28;20041;-85
2023/03/25 09:22:14;;;;;;;14.85;3.78;;;16.60;64.30;;;;;;5021502;28;20351;-84
2023/03/25 09:24:40;;;;;;;11.38;3.03;;;16.60;64.00;;;;;;5019933;28;20056;-83
2023/03/25 09:27:07;;;;;;;13.93;3.60;;;16.70;63.90;;;;;;5022557;28;20049;-82
2023/03/25 09:29:33;;;;;;;14.93;3.47;;;16.80;63.80;;;;;;5024651;28;20429;-80
2023/03/25 09:31:59;;;;;;;17.75;4.45;;;17.00;63.70;;;;;;5011485;28;20144;-77
2023/03/25 09:34:27;;;;;;;11.80;3.85;;;17.10;63.70;;;;;;5001735;28;20029;-78
2023/03/25 09:36:54;;;;;;;15.13;3.80;;;17.10;63.30;;;;;;5019949;28;20033;-79
2023/03/25 09:39:20;;;;;;;11.95;3.17;;;17.20;63.20;;;;;;5019973;28;20030;-80
2023/03/25 09:42:08;;;;;;;13.88;3.63;;;17.30;63.10;;;;;;5027234;28;20171;-79
2023/03/25 09:44:59;;;;;;;11.18;3.65;;;17.30;62.80;;;;;;5016799;28;20210;-78
2023/03/25 09:47:27;;;;;;;14.43;4.07;;;17.30;62.70;;;;;;5017580;28;20057;-79
2023/03/25 09:49:58;;;;;;;14.65;4.63;;;17.30;62.90;;;;;;5017865;28;20053;-80
2023/03/25 09:53:00;;;;;;;8.85;3.10;;;17.30;62.90;;;;;;5017743;28;20056;-78
2023/03/25 09:55:31;;;;;;;10.82;3.38;;;17.40;63.10;;;;;;4976883;28;20047;-79
2023/03/25 09:58:34;;;;;;;12.98;3.10;;;17.40;63.20;;;;;;5005851;28;20041;-80
2023/03/25 10:01:10;;;;;;;12.20;3.65;;;17.50;63.30;;;;;;5007650;28;20033;-80
2023/03/25 10:03:45;;;;;;;12.50;4.50;;;17.70;63.50;;;;;;5026465;28;20135;-82
2023/03/25 10:06:20;;;;;;;13.48;3.60;;;17.80;63.40;;;;;;5000743;28;20537;-81
2023/03/25 10:09:04;;;;;;;14.43;4.18;;;17.90;63.20;;;;;;5030955;28;20029;-82
2023/03/25 10:12:03;;;;;;;17.35;4.03;;;18.10;63.20;;;;;;5011027;28;20034;-83
2023/03/25 10:15:21;;;;;;;11.98;3.08;;;18.10;63.10;;;;;;5007998;28;20098;-81
2023/03/25 10:18:06;;;;;;;12.38;3.58;;;18.10;63.00;;;;;;5002070;28;20255;-82
2023/03/25 10:20:45;;;;;;;13.32;3.67;;;18.10;63.00;;;;;;5025264;28;20090;-80
2023/03/25 10:23:25;;;;;;;15.88;4.35;;;18.10;63.30;;;;;;5029407;28;20029;-79
2023/03/25 10:26:03;;;;;;;13.70;3.22;;;18.10;64.00;;;;;;5030949;28;20081;-83
2023/03/25 10:28:38;;;;;;;12.52;4.05;;;18.00;64.20;;;;;;5015444;28;20033;-82
2023/03/25 10:31:10;;;;;;;19.73;4.10;;;18.00;64.40;;;;;;5019005;28;20021;-85
2023/03/25 10:33:40;;;;;;;14.88;4.20;;;18.00;64.40;;;;;;5019072;28;20064;-86
2023/03/25 10:36:16;;;;;;;18.77;3.85;;;18.00;64.40;;;;;;5027242;28;20033;-86
2023/03/25 10:38:45;;;;;;;17.88;4.90;;;18.10;64.40;;;;;;5018386;28;20075;-87
2023/03/25 10:41:42;;;;;;;19.35;5.28;;;18.20;64.00;;;;;;5018842;28;20029;-87
2023/03/25 10:44:09;;;;;;;16.92;5.13;;;18.20;63.60;;;;;;4986099;28;20037;-85
2023/03/25 10:46:46;;;;;;;22.55;5.10;;;18.30;63.90;;;;;;5025647;28;20057;-86
2023/03/25 10:49:23;;;;;;;18.90;5.22;;;18.30;63.80;;;;;;5025253;28;20025;-87
2023/03/25 10:51:58;;;;;;;14.85;4.93;;;18.40;63.80;;;;;;5008109;28;20130;-81
2023/03/25 10:54:30;;;;;;;16.90;3.50;;;18.60;64.00;;;;;;5020368;28;20326;-83
2023/03/25 10:57:03;;;;;;;14.03;3.80;;;18.70;63.80;;;;;;5020532;28;20033;-81
2023/03/25 10:59:35;;;;;;;15.23;4.30;;;18.90;63.70;;;;;;5011288;28;20286;-85
2023/03/25 11:02:13;;;;;;;14.07;4.47;;;19.00;63.60;;;;;;5007795;28;20025;-83
2023/03/25 11:04:43;;;;;;;19.98;5.60;;;19.10;63.70;;;;;;4994959;28;20041;-85
2023/03/25 11:07:29;;;;;;;11.00;3.83;;;19.20;64.00;;;;;;5026270;28;20050;-83
2023/03/25 11:10:20;;;;;;;13.27;4.28;;;19.30;64.10;;;;;;5022212;28;20108;-81
2023/03/25 11:12:52;;;;;;;9.25;3.55;;;19.30;63.90;;;;;;5006113;28;20045;-81
2023/03/25 11:15:23;;;;;;;11.43;3.90;;;19.40;64.20;;;;;;5021595;28;20078;-81
2023/03/25 11:18:01;;;;;;;10.00;3.60;;;19.50;64.40;;;;;;4998550;28;20099;-84
2023/03/25 11:20:34;;;;;;;16.38;3.65;;;19.70;64.50;;;;;;5003894;28;20045;-83
2023/03/25 11:23:26;;;;;;;13.85;4.40;;;20.00;64.50;;;;;;5006444;28;20290;-89
2023/03/25 11:26:01;;;;;;;13.20;3.45;;;20.20;63.90;;;;;;5014693;28;20052;-88
2023/03/25 11:28:40;;;;;;;12.33;3.67;;;20.30;63.60;;;;;;5010162;28;20547;-89
2023/03/25 11:31:10;;;;;;;12.65;4.25;;;20.40;63.10;;;;;;5024958;28;20064;-89
2023/03/25 11:33:36;;;;;;;8.88;2.90;;;20.50;63.10;;;;;;5016673;28;20041;-87
2023/03/25 11:36:16;;;;;;;14.25;4.05;;;20.60;62.80;;;;;;4998053;28;20037;-85
2023/03/25 11:38:46;;;;;;;12.65;3.72;;;20.60;62.30;;;;;;5016013;28;20139;-80
2023/03/25 11:41:13;;;;;;;13.52;4.07;;;20.70;62.30;;;;;;4999895;28;20034;-81
2023/03/25 11:43:40;;;;;;;10.63;3.13;;;20.70;62.20;;;;;;5024537;28;20127;-80
2023/03/25 11:46:15;;;;;;;10.77;2.75;;;20.60;62.30;;;;;;5030372;28;20131;-82
2023/03/25 11:48:45;;;;;;;9.45;3.13;;;20.60;62.40;;;;;;5028392;28;20045;-83
2023/03/25 11:51:22;;;;;;;9.52;3.10;;;20.60;62.60;;;;;;5027390;28;20038;-82
2023/03/25 11:53:56;;;;;;;11.10;3.00;;;20.60;62.80;;;;;;5022928;28;20079;-86
2023/03/25 11:56:29;;;;;;;11.30;3.40;;;20.60;62.90;;;;;;5036902;28;20040;-85
2023/03/25 11:58:59;;;;;;;12.43;2.97;;;20.60;62.90;;;;;;5033879;28;20029;-81
2023/03/25 12:01:35;;;;;;;10.70;4.00;;;20.70;62.90;;;;;;5028142;28;20148;-83
2023/03/25 12:04:22;;;;;;;9.43;3.50;;;20.70;62.80;;;;;;5030990;28;20033;-81
2023/03/25 12:06:59;;;;;;;8.32;2.60;;;20.80;62.90;;;;;;5023086;28;20291;-83
2023/03/25 12:09:30;;;;;;;12.45;3.97;;;20.80;63.00;;;;;;5031146;28;20033;-83
2023/03/25 12:12:15;;;;;;;27.00;17.80;;;20.80;63.10;;;;;;5029872;28;20601;-88
2023/03/25 12:14:56;;;;;;;48.00;37.10;;;20.90;64.00;;;;;;5042210;28;20123;-87
2023/03/25 12:17:39;;;;;;;37.78;28.08;;;21.10;65.30;;;;;;5014443;28;20044;-85
2023/03/25 12:20:26;;;;;;;40.25;27.70;;;21.30;65.90;;;;;;5018746;28;20044;-84
2023/03/25 12:23:14;;;;;;;36.95;26.38;;;21.50;66.30;;;;;;5043201;28;20025;-79
2023/03/25 12:26:06;;;;;;;32.53;21.23;;;21.70;67.40;;;;;;5039889;28;20366;-85
2023/03/25 12:28:38;;;;;;;31.60;20.55;;;21.90;67.40;;;;;;5031849;28;20496;-84
2023/03/25 12:31:36;;;;;;;28.73;19.65;;;22.00;67.00;;;;;;5034658;28;20116;-83
2023/03/25 12:34:11;;;;;;;31.55;18.17;;;22.10;66.70;;;;;;5028507;28;20047;-82
2023/03/25 12:36:58;;;;;;;21.98;15.43;;;22.20;66.60;;;;;;5021935;28;20385;-80
2023/03/25 12:39:24;;;;;;;23.70;14.25;;;22.20;66.20;;;;;;5028783;28;20479;-79
2023/03/25 12:42:07;;;;;;;18.42;11.85;;;22.20;66.00;;;;;;5024862;28;20033;-80
2023/03/25 12:44:55;;;;;;;21.42;11.88;;;22.20;65.40;;;;;;5019110;28;20038;-80
2023/03/25 12:47:42;;;;;;;17.90;11.73;;;22.30;65.20;;;;;;5017015;28;20122;-81
2023/03/25 12:50:26;;;;;;;17.50;9.80;;;22.40;64.80;;;;;;5026640;28;20144;-80
2023/03/25 12:53:18;;;;;;;17.17;9.98;;;22.50;64.30;;;;;;5005206;28;20046;-81
2023/03/25 12:55:55;;;;;;;14.75;9.95;;;22.60;64.00;;;;;;4998202;28;20305;-86
2023/03/25 12:58:24;;;;;;;15.02;9.00;;;22.60;63.80;;;;;;5023790;28;20033;-81
2023/03/25 13:01:15;;;;;;;18.15;8.32;;;22.60;63.70;;;;;;5033605;28;20504;-82
2023/03/25 13:04:02;;;;;;;13.15;7.40;;;22.40;63.00;;;;;;5026021;28;20528;-79